createdAt,value
2019-04-20T00:00:19.130Z,969.07
2019-04-20T00:15:06.921Z,969.45
2019-04-20T00:31:34.956Z,969.69
2019-04-20T00:45:33.653Z,969.75
2019-04-20T01:01:35.703Z,969.88
2019-04-20T01:15:37.424Z,970.13
2019-04-20T01:30:59.851Z,970.32
2019-04-20T01:45:38.864Z,970.54
2019-04-20T02:15:44.262Z,970.83
2019-04-20T02:32:09.877Z,971.3
2019-04-20T02:47:06.728Z,971.46
2019-04-20T03:01:49.996Z,971.68
2019-04-20T03:16:50.151Z,971.57
2019-04-20T03:45:24.521Z,972.11
2019-04-20T04:01:16.113Z,972.39
2019-04-20T04:15:04.513Z,972.58
2019-04-20T04:31:36.040Z,972.71
2019-04-20T04:45:22.171Z,972.96
2019-04-20T05:00:17.537Z,973.15
2019-04-20T05:16:15.537Z,972.79
2019-04-20T05:30:05.915Z,972.22
2019-04-20T05:46:26.062Z,972.01
2019-04-20T06:02:09.520Z,971.32
2019-04-20T06:16:26.939Z,970.83
2019-04-20T06:31:29.835Z,970.1
2019-04-20T06:47:02.581Z,969.42
2019-04-20T07:16:27.832Z,974.08
2019-04-20T07:31:22.601Z,972.08
2019-04-20T07:47:06.792Z,972.7
2019-04-20T08:17:36.887Z,969.15
2019-04-20T08:31:20.227Z,972.34
2019-04-20T08:47:09.808Z,971.39
2019-04-20T09:00:11.299Z,970.85
2019-04-20T09:15:06.318Z,970.51
2019-04-20T09:31:11.758Z,971.13
2019-04-20T09:45:30.313Z,972.79
2019-04-20T10:01:15.416Z,967.03
2019-04-20T10:15:26.576Z,967.6
2019-04-20T10:30:06.480Z,967.8
2019-04-20T10:45:06.101Z,968.1
2019-04-20T11:00:05.993Z,968.07
2019-04-20T11:15:06.244Z,967.8
2019-04-20T11:30:05.157Z,967.82
2019-04-20T11:45:04.905Z,967.71
2019-04-20T12:00:05.699Z,967.33
2019-04-20T12:15:04.896Z,967.06
2019-04-20T12:30:05.498Z,966.84
2019-04-20T12:45:06.119Z,966.62
2019-04-20T13:00:05.872Z,966.4
2019-04-20T13:15:04.730Z,966.23
2019-04-20T13:30:05.420Z,965.74
2019-04-20T13:45:06.611Z,965.68
2019-04-20T14:00:06.356Z,965.44
2019-04-20T14:15:05.263Z,965.35
2019-04-20T14:30:04.200Z,965.02
2019-04-20T14:45:04.998Z,964.86
2019-04-20T15:00:05.815Z,964.61
2019-04-20T15:15:05.187Z,964.45
2019-04-20T15:30:06.805Z,964.23
2019-04-20T15:45:05.601Z,964.15
2019-04-20T16:00:04.871Z,964.15
2019-04-20T16:15:04.536Z,964.12
2019-04-20T16:30:05.724Z,963.98
2019-04-20T16:45:05.599Z,963.98
2019-04-20T17:00:05.731Z,963.98
2019-04-20T17:15:07.456Z,964.01
2019-04-20T17:30:08.816Z,964.12
2019-04-20T17:45:50.158Z,964.2
2019-04-20T18:00:17.634Z,964.53
2019-04-20T18:16:29.211Z,964.86
2019-04-20T18:30:55.070Z,965.16
2019-04-20T18:46:49.195Z,965.52
2019-04-20T19:00:28.564Z,965.93
2019-04-20T19:16:22.599Z,966.37
2019-04-20T19:30:49.904Z,966.62
2019-04-20T19:47:15.216Z,967.22
2019-04-20T20:00:11.534Z,967.6
2019-04-20T20:15:33.015Z,967.82
2019-04-20T20:30:48.996Z,968.13
2019-04-20T20:45:45.187Z,968.29
2019-04-20T21:00:48.294Z,968.4
2019-04-20T21:15:24.621Z,968.65
2019-04-20T21:30:37.435Z,968.84
2019-04-20T21:45:35.501Z,968.7
2019-04-20T22:00:45.920Z,969.14
2019-04-20T22:15:35.271Z,969.22
2019-04-20T22:30:06.405Z,969.53
2019-04-20T22:45:17.323Z,969.74
2019-04-20T23:00:47.244Z,969.91
2019-04-20T23:15:04.957Z,970.16
2019-04-20T23:30:34.423Z,970.18
2019-04-20T23:45:07.736Z,970.46
